Time;durP1;ratioP1;P1;durP2;ratioP2;P2;SDS_P1;SDS_P2;PMS_P1;PMS_P2;Temp;Humidity;BMP_temperature;BMP_pressure;BME280_temperature;BME280_humidity;BME280_pressure;Samples;Min_cycle;Max_cycle;Signal;HPM_P1;HPM_P2
2022/03/12 00:00:00;;;;;;;3.40;1.17;;;8.70;90.70;;;;;;5080062;28;20195;-69
2022/03/12 00:02:31;;;;;;;0.30;0.30;;;8.60;90.70;;;;;;5102425;28;20549;-71
2022/03/12 00:04:57;;;;;;;0.83;0.83;;;8.60;90.60;;;;;;5104067;28;20254;-70
2022/03/12 00:07:23;;;;;;;0.60;0.60;;;8.60;91.40;;;;;;5104727;28;20207;-69
2022/03/12 00:09:50;;;;;;;0.97;0.97;;;8.50;91.30;;;;;;5101460;28;20547;-71
2022/03/12 00:12:17;;;;;;;5.47;3.27;;;8.50;91.10;;;;;;5081040;28;20755;-69
2022/03/12 00:14:45;;;;;;;2.30;0.93;;;8.40;92.30;;;;;;5102475;28;20190;-70
2022/03/12 00:17:11;;;;;;;1.00;1.00;;;8.30;93.40;;;;;;5102323;28;20218;-73
2022/03/12 00:19:37;;;;;;;1.07;1.07;;;8.20;92.70;;;;;;5101791;28;20199;-70
2022/03/12 00:22:03;;;;;;;1.70;1.40;;;8.20;92.50;;;;;;5101806;28;20361;-71
2022/03/12 00:24:29;;;;;;;1.27;0.70;;;8.20;92.70;;;;;;5100793;28;20183;-72
2022/03/12 00:26:56;;;;;;;0.97;0.97;;;8.10;92.90;;;;;;5106162;28;20217;-70
2022/03/12 00:29:22;;;;;;;0.57;0.57;;;8.20;92.20;;;;;;5091002;28;20542;-70
2022/03/12 00:31:50;;;;;;;1.03;0.93;;;8.20;92.70;;;;;;5084832;28;20707;-69
2022/03/12 00:34:17;;;;;;;0.93;0.93;;;8.30;92.50;;;;;;5107314;28;20190;-70
2022/03/12 00:36:43;;;;;;;8.40;1.63;;;8.30;91.80;;;;;;5086722;28;20211;-68
2022/03/12 00:39:10;;;;;;;1.10;0.73;;;8.40;92.10;;;;;;5105967;28;20203;-71
2022/03/12 00:41:38;;;;;;;0.47;0.47;;;8.50;91.30;;;;;;5085082;28;20334;-69
2022/03/12 00:44:05;;;;;;;1.70;1.60;;;8.50;90.90;;;;;;5106036;28;20191;-69
2022/03/12 00:46:30;;;;;;;0.60;0.60;;;8.70;91.20;;;;;;5106934;28;20197;-69
2022/03/12 00:48:56;;;;;;;2.90;2.20;;;8.70;90.90;;;;;;5113863;28;20251;-71
2022/03/12 00:51:21;;;;;;;1.87;1.77;;;8.70;90.80;;;;;;5112744;28;20214;-72
2022/03/12 00:53:47;;;;;;;0.63;0.63;;;8.70;91.20;;;;;;5112368;28;20224;-71
2022/03/12 00:56:13;;;;;;;3.73;1.77;;;8.60;91.00;;;;;;5113982;28;20195;-70
2022/03/12 00:58:39;;;;;;;0.47;0.47;;;8.70;90.50;;;;;;5112652;28;20236;-71
2022/03/12 01:01:05;;;;;;;1.07;0.97;;;8.70;89.60;;;;;;5111657;28;20215;-71
2022/03/12 01:03:31;;;;;;;1.37;1.37;;;8.70;90.90;;;;;;5090787;28;20218;-72
2022/03/12 01:06:02;;;;;;;1.87;1.77;;;8.80;89.90;;;;;;5090217;28;20702;-71
2022/03/12 01:08:30;;;;;;;0.70;0.70;;;8.80;88.90;;;;;;5089845;28;20180;-70
2022/03/12 01:10:58;;;;;;;2.77;2.13;;;8.80;90.10;;;;;;5111822;28;20179;-70
2022/03/12 01:13:23;;;;;;;1.70;1.60;;;8.80;89.20;;;;;;5112009;28;20656;-71
2022/03/12 01:15:50;;;;;;;4.00;2.20;;;8.90;88.40;;;;;;5114045;28;20298;-73
2022/03/12 01:18:17;;;;;;;0.80;0.80;;;8.80;89.30;;;;;;5113496;28;20175;-72
2022/03/12 01:20:43;;;;;;;2.30;2.10;;;8.80;90.30;;;;;;5113209;28;20210;-71
2022/03/12 01:23:12;;;;;;;0.93;0.93;;;8.80;87.80;;;;;;5109635;28;20335;-70
2022/03/12 01:25:38;;;;;;;1.87;1.70;;;8.80;89.20;;;;;;5096260;28;20218;-72
2022/03/12 01:28:03;;;;;;;4.00;1.67;;;8.80;89.10;;;;;;5093570;28;20229;-71
2022/03/12 01:30:31;;;;;;;2.90;1.43;;;8.70;90.00;;;;;;5117263;28;20256;-71
2022/03/12 01:32:58;;;;;;;0.73;0.73;;;8.80;88.70;;;;;;5115850;28;20179;-71
2022/03/12 01:35:24;;;;;;;5.20;1.60;;;8.80;87.90;;;;;;5115662;28;20187;-71
2022/03/12 01:37:49;;;;;;;1.60;1.50;;;8.80;89.60;;;;;;5116806;28;20250;-71
2022/03/12 01:40:15;;;;;;;2.20;0.87;;;8.70;89.90;;;;;;5096655;28;20248;-70
2022/03/12 01:42:43;;;;;;;4.57;1.63;;;8.70;90.10;;;;;;5112474;28;20265;-72
2022/03/12 01:45:10;;;;;;;7.20;1.67;;;8.70;88.20;;;;;;5111442;28;20171;-73
2022/03/12 01:47:36;;;;;;;1.00;1.00;;;8.90;88.40;;;;;;5088001;28;20203;-71
2022/03/12 01:50:04;;;;;;;1.87;1.67;;;8.80;88.00;;;;;;5091237;28;20184;-71
2022/03/12 01:52:30;;;;;;;0.57;0.57;;;8.80;88.20;;;;;;5110968;28;20199;-71
2022/03/12 01:54:56;;;;;;;3.47;2.73;;;8.80;87.40;;;;;;5091903;28;20659;-71
2022/03/12 01:57:22;;;;;;;1.27;1.23;;;8.90;87.50;;;;;;5112216;28;20592;-71
2022/03/12 01:59:48;;;;;;;2.30;1.50;;;8.90;88.00;;;;;;5103489;28;20266;-71
2022/03/12 02:02:15;;;;;;;0.70;0.70;;;8.80;90.00;;;;;;5103732;28;20328;-71
2022/03/12 02:04:49;;;;;;;0.70;0.70;;;8.70;89.30;;;;;;5101783;28;20190;-69
2022/03/12 02:07:15;;;;;;;2.27;1.37;;;8.90;85.70;;;;;;5113423;22;20599;-77
2022/03/12 02:09:41;;;;;;;3.83;1.93;;;8.90;87.40;;;;;;5075680;28;20179;-76
2022/03/12 02:12:07;;;;;;;0.80;0.80;;;8.90;88.00;;;;;;5087918;28;20473;-77
2022/03/12 02:14:33;;;;;;;2.30;2.20;;;8.80;86.40;;;;;;5075428;28;20186;-76
2022/03/12 02:17:02;;;;;;;8.73;3.30;;;8.80;87.80;;;;;;5091839;28;20226;-77
2022/03/12 02:19:29;;;;;;;1.87;1.77;;;8.70;89.20;;;;;;5095743;28;20184;-78
2022/03/12 02:21:56;;;;;;;7.60;1.93;;;8.70;89.10;;;;;;5097490;28;20203;-76
2022/03/12 02:24:25;;;;;;;1.10;1.10;;;8.70;88.80;;;;;;5093151;28;20225;-76
2022/03/12 02:26:52;;;;;;;2.20;1.10;;;8.70;88.40;;;;;;5089794;28;20201;-76
2022/03/12 02:29:22;;;;;;;0.30;0.30;;;8.70;88.40;;;;;;5072762;28;20615;-76
2022/03/12 02:31:56;;;;;;;0.73;0.73;;;8.70;88.30;;;;;;5079198;28;20192;-76
2022/03/12 02:34:26;;;;;;;1.70;1.63;;;8.70;88.80;;;;;;5077200;28;20191;-76
2022/03/12 02:36:56;;;;;;;1.23;1.23;;;8.70;89.40;;;;;;5076954;28;20207;-75
2022/03/12 02:39:22;;;;;;;4.23;2.33;;;8.70;89.60;;;;;;5095926;28;20199;-77
2022/03/12 02:41:48;;;;;;;1.30;1.20;;;8.60;90.50;;;;;;5095142;28;20183;-74
2022/03/12 02:44:22;;;;;;;2.10;0.83;;;8.60;90.20;;;;;;5074298;28;20188;-74
2022/03/12 02:47:15;;;;;;;1.03;1.03;;;8.60;89.40;;;;;;5074270;28;20279;-74
2022/03/12 02:50:07;;;;;;;4.87;2.73;;;8.60;91.00;;;;;;5095690;28;20677;-77
2022/03/12 02:52:41;;;;;;;19.87;1.73;;;8.50;94.30;;;;;;5093101;28;20550;-76
2022/03/12 02:55:12;;;;;;;3.90;1.20;;;8.30;94.10;;;;;;5079502;28;20211;-76
2022/03/12 02:57:38;;;;;;;7.53;1.47;;;8.20;95.70;;;;;;5073722;28;20195;-76
2022/03/12 03:00:07;;;;;;;7.63;1.80;;;8.10;95.70;;;;;;5092942;28;20236;-74
2022/03/12 03:02:39;;;;;;;0.70;0.70;;;8.10;95.40;;;;;;5094126;28;20171;-75
2022/03/12 03:05:12;;;;;;;0.77;0.77;;;8.00;95.00;;;;;;5088427;28;20816;-76
2022/03/12 03:07:38;;;;;;;1.47;1.37;;;8.10;94.70;;;;;;5092673;28;20282;-75
2022/03/12 03:10:05;;;;;;;3.87;1.53;;;8.10;94.60;;;;;;5075428;28;20664;-76
2022/03/12 03:12:31;;;;;;;0.67;0.67;;;8.10;93.60;;;;;;5077588;28;20296;-76
2022/03/12 03:14:57;;;;;;;1.60;1.33;;;8.10;93.30;;;;;;5075875;28;20187;-76
2022/03/12 03:17:25;;;;;;;1.37;1.13;;;8.10;94.30;;;;;;5076851;28;20202;-74
2022/03/12 03:19:52;;;;;;;1.27;0.97;;;8.10;92.80;;;;;;5094861;28;20183;-73
2022/03/12 03:22:17;;;;;;;0.90;0.83;;;8.20;93.10;;;;;;5093286;28;20231;-77
2022/03/12 03:24:43;;;;;;;2.80;2.33;;;8.20;92.40;;;;;;5094097;28;20175;-74
2022/03/12 03:27:09;;;;;;;0.57;0.57;;;8.30;91.70;;;;;;5095191;28;20223;-76
2022/03/12 03:29:34;;;;;;;5.87;1.43;;;8.40;91.60;;;;;;5095390;28;20633;-76
2022/03/12 03:32:01;;;;;;;2.93;1.60;;;8.40;91.50;;;;;;5093800;28;20275;-76
2022/03/12 03:34:29;;;;;;;3.03;0.73;;;8.30;91.90;;;;;;5072107;28;20187;-76
2022/03/12 03:36:55;;;;;;;6.43;1.47;;;8.40;91.70;;;;;;5089862;28;20200;-74
2022/03/12 03:39:21;;;;;;;1.97;0.90;;;8.40;92.10;;;;;;5090408;28;20193;-76
2022/03/12 03:41:47;;;;;;;9.00;2.73;;;8.30;91.90;;;;;;5075259;28;20198;-73
2022/03/12 03:44:13;;;;;;;0.73;0.73;;;8.30;91.40;;;;;;5091560;28;20203;-74
2022/03/12 03:46:39;;;;;;;10.00;2.00;;;8.30;92.30;;;;;;5095151;28;20278;-75
2022/03/12 03:49:05;;;;;;;7.47;3.47;;;8.20;92.40;;;;;;5072665;28;20638;-74
2022/03/12 03:51:37;;;;;;;20.57;1.67;;;8.10;92.40;;;;;;5095090;28;20171;-75
2022/03/12 03:54:03;;;;;;;1.33;1.33;;;8.10;92.80;;;;;;5101782;28;20611;-73
2022/03/12 03:56:29;;;;;;;1.97;1.23;;;8.00;93.20;;;;;;5069678;28;20286;-74
2022/03/12 03:58:54;;;;;;;2.03;1.93;;;7.90;94.00;;;;;;5094665;28;20583;-74
2022/03/12 04:01:22;;;;;;;1.33;1.30;;;7.90;93.50;;;;;;5097643;28;20204;-75
2022/03/12 04:03:48;;;;;;;2.37;1.60;;;8.00;93.60;;;;;;5095277;28;20187;-75
2022/03/12 04:06:15;;;;;;;1.93;1.83;;;7.90;93.90;;;;;;5097976;28;20210;-74
2022/03/12 04:08:42;;;;;;;5.90;2.10;;;7.80;94.00;;;;;;5079014;28;20182;-74
2022/03/12 04:11:13;;;;;;;1.17;0.73;;;7.80;93.50;;;;;;5103749;28;20231;-74
2022/03/12 04:13:39;;;;;;;1.37;1.37;;;7.80;94.30;;;;;;5088055;28;20182;-75
2022/03/12 04:16:06;;;;;;;2.83;2.10;;;7.80;94.10;;;;;;5097949;28;20542;-77
2022/03/12 04:18:32;;;;;;;0.77;0.77;;;7.80;94.00;;;;;;5097261;28;20176;-76
2022/03/12 04:20:58;;;;;;;2.17;2.00;;;7.70;94.90;;;;;;5098031;28;20609;-76
2022/03/12 04:23:24;;;;;;;1.43;1.43;;;7.70;95.20;;;;;;5081517;28;20171;-76
2022/03/12 04:25:55;;;;;;;1.30;1.20;;;7.70;94.30;;;;;;5102971;28;20279;-77
2022/03/12 04:28:21;;;;;;;0.63;0.63;;;7.70;95.20;;;;;;5096036;28;20699;-76
2022/03/12 04:30:47;;;;;;;1.80;1.70;;;7.70;94.60;;;;;;5105050;28;20192;-75
2022/03/12 04:33:14;;;;;;;2.07;1.97;;;7.70;94.90;;;;;;5093870;28;20528;-76
2022/03/12 04:35:41;;;;;;;1.23;1.13;;;7.80;94.40;;;;;;5076278;28;20244;-76
2022/03/12 04:38:11;;;;;;;1.20;1.03;;;7.80;95.00;;;;;;5101293;28;20180;-75
2022/03/12 04:40:41;;;;;;;0.80;0.80;;;7.80;94.50;;;;;;5084364;28;20590;-76
2022/03/12 04:43:09;;;;;;;0.97;0.97;;;7.80;95.20;;;;;;5097157;28;20176;-75
2022/03/12 04:45:36;;;;;;;1.50;1.50;;;7.70;94.80;;;;;;5101207;28;20175;-76
2022/03/12 04:48:02;;;;;;;1.03;1.03;;;7.80;94.50;;;;;;5102404;28;20183;-75
2022/03/12 04:50:28;;;;;;;0.90;0.90;;;7.70;94.50;;;;;;5095179;28;20238;-75
2022/03/12 04:52:57;;;;;;;1.03;0.93;;;7.70;95.10;;;;;;5100681;28;20199;-74
2022/03/12 04:55:29;;;;;;;0.77;0.77;;;7.60;96.20;;;;;;5091191;28;20205;-74
2022/03/12 04:57:56;;;;;;;0.53;0.53;;;7.60;95.40;;;;;;5077303;28;20211;-74
2022/03/12 05:00:27;;;;;;;1.93;1.80;;;7.50;95.50;;;;;;5108535;28;20215;-75
2022/03/12 05:03:03;;;;;;;1.00;1.00;;;7.50;96.00;;;;;;5096206;28;20176;-74
2022/03/12 05:05:29;;;;;;;1.13;1.13;;;7.50;96.00;;;;;;5081203;28;20270;-75
2022/03/12 05:07:56;;;;;;;3.83;3.00;;;7.50;95.40;;;;;;5097125;28;20636;-74
2022/03/12 05:10:26;;;;;;;0.47;0.47;;;7.40;95.60;;;;;;5102027;28;20168;-73
2022/03/12 05:12:54;;;;;;;0.90;0.90;;;7.40;95.60;;;;;;5095951;28;20186;-73
2022/03/12 05:15:20;;;;;;;0.60;0.60;;;7.40;96.50;;;;;;5077534;28;20803;-74
2022/03/12 05:17:51;;;;;;;2.20;2.00;;;7.30;96.40;;;;;;5094766;28;20203;-74
2022/03/12 05:20:22;;;;;;;1.80;1.40;;;7.20;96.30;;;;;;5072275;28;20675;-74
2022/03/12 05:22:49;;;;;;;2.43;1.33;;;7.20;96.60;;;;;;5094091;28;20720;-73
2022/03/12 05:25:19;;;;;;;0.20;0.20;;;7.10;96.70;;;;;;5093596;28;20172;-73
2022/03/12 05:27:54;;;;;;;36.33;1.70;;;7.00;97.30;;;;;;5098444;28;20195;-72
2022/03/12 05:30:22;;;;;;;1.97;1.87;;;7.00;96.90;;;;;;5088128;28;20270;-73
2022/03/12 05:32:49;;;;;;;0.70;0.70;;;6.90;97.50;;;;;;5093124;28;20260;-73
2022/03/12 05:35:19;;;;;;;1.40;1.30;;;6.90;97.70;;;;;;5074356;28;20680;-74
2022/03/12 05:37:47;;;;;;;4.83;1.07;;;6.80;98.00;;;;;;5091696;28;20773;-74
2022/03/12 05:40:18;;;;;;;1.83;1.60;;;6.70;98.20;;;;;;5091540;28;21005;-73
2022/03/12 05:42:44;;;;;;;7.30;2.93;;;6.60;99.20;;;;;;5091660;28;20166;-75
2022/03/12 05:45:09;;;;;;;1.23;1.23;;;6.50;99.90;;;;;;5093585;28;20791;-76
2022/03/12 05:47:40;;;;;;;0.77;0.77;;;6.30;99.90;;;;;;5096880;28;20187;-76
2022/03/12 05:50:09;;;;;;;0.80;0.80;;;6.30;99.90;;;;;;5072388;28;20195;-75
2022/03/12 05:52:39;;;;;;;1.00;1.00;;;6.20;99.90;;;;;;5093440;28;20164;-75
2022/03/12 05:55:08;;;;;;;2.03;1.93;;;6.10;99.90;;;;;;5092876;28;20176;-74
2022/03/12 05:57:37;;;;;;;0.50;0.50;;;6.00;99.90;;;;;;5093717;28;20847;-76
2022/03/12 06:00:11;;;;;;;0.53;0.50;;;5.90;99.90;;;;;;5087907;28;20571;-75
2022/03/12 06:02:48;;;;;;;1.77;1.10;;;5.80;99.90;;;;;;5090394;28;20188;-73
2022/03/12 06:05:14;;;;;;;2.23;1.97;;;5.80;99.90;;;;;;5093135;28;20646;-74
2022/03/12 06:07:45;;;;;;;1.93;1.37;;;5.80;99.90;;;;;;5071707;28;20214;-76
2022/03/12 06:10:12;;;;;;;0.70;0.70;;;5.90;99.90;;;;;;5090837;28;20177;-74
2022/03/12 06:12:43;;;;;;;1.33;1.23;;;5.90;99.90;;;;;;5090694;28;20175;-75
2022/03/12 06:15:14;;;;;;;2.97;2.73;;;5.90;99.90;;;;;;5092801;28;20260;-75
2022/03/12 06:17:40;;;;;;;3.27;2.67;;;5.90;99.90;;;;;;5093419;28;20686;-74
2022/03/12 06:20:12;;;;;;;1.47;1.43;;;5.90;99.90;;;;;;5086148;28;20207;-75
2022/03/12 06:22:38;;;;;;;3.10;1.93;;;5.90;99.90;;;;;;5088324;28;20181;-75
2022/03/12 06:25:10;;;;;;;1.23;1.17;;;6.00;99.90;;;;;;5086917;28;20171;-75
2022/03/12 06:27:36;;;;;;;1.03;1.03;;;6.00;99.90;;;;;;5089706;28;20191;-74
2022/03/12 06:30:04;;;;;;;2.63;1.33;;;6.00;99.90;;;;;;5075612;28;20182;-74
2022/03/12 06:32:31;;;;;;;4.03;1.70;;;6.00;99.90;;;;;;5095000;28;20661;-74
2022/03/12 06:34:57;;;;;;;1.03;1.03;;;6.00;99.90;;;;;;5093674;28;20265;-74
2022/03/12 06:37:24;;;;;;;4.07;2.10;;;6.10;99.90;;;;;;5094660;28;20202;-75
2022/03/12 06:39:50;;;;;;;1.50;1.07;;;6.10;99.90;;;;;;5074076;28;20214;-73
2022/03/12 06:42:17;;;;;;;1.70;1.60;;;6.20;99.90;;;;;;5074396;28;20179;-72
2022/03/12 06:44:43;;;;;;;3.33;1.57;;;6.30;99.90;;;;;;5090832;28;20180;-72
2022/03/12 06:47:10;;;;;;;0.60;0.60;;;6.40;99.90;;;;;;5095128;28;20578;-72
2022/03/12 06:49:38;;;;;;;1.40;1.30;;;6.50;99.90;;;;;;5095325;28;20207;-75
2022/03/12 06:52:05;;;;;;;1.43;0.97;;;6.50;99.90;;;;;;5093150;28;20225;-76
2022/03/12 06:54:32;;;;;;;0.57;0.57;;;6.50;99.90;;;;;;5079783;28;20188;-75
2022/03/12 06:56:58;;;;;;;2.00;1.77;;;6.50;99.90;;;;;;5097248;28;20233;-76
2022/03/12 06:59:23;;;;;;;1.77;1.20;;;6.50;99.90;;;;;;5091607;28;20282;-76
2022/03/12 07:01:49;;;;;;;1.47;1.27;;;6.60;99.90;;;;;;5101892;28;20172;-77
2022/03/12 07:04:14;;;;;;;0.60;0.60;;;6.60;99.90;;;;;;5098272;28;20179;-78
2022/03/12 07:06:41;;;;;;;0.67;0.67;;;6.70;99.90;;;;;;5094221;28;20210;-73
2022/03/12 07:09:06;;;;;;;0.60;0.60;;;6.80;99.90;;;;;;5091940;28;20176;-74
2022/03/12 07:11:32;;;;;;;0.90;0.90;;;6.80;99.90;;;;;;5081329;28;20228;-73
2022/03/12 07:13:59;;;;;;;2.43;2.33;;;6.90;99.90;;;;;;5100256;28;20180;-74
2022/03/12 07:16:24;;;;;;;0.50;0.50;;;7.00;99.90;;;;;;5096083;28;20210;-76
2022/03/12 07:18:50;;;;;;;4.30;3.23;;;7.20;99.90;;;;;;5081630;28;20181;-76
2022/03/12 07:21:16;;;;;;;0.20;0.20;;;7.30;99.90;;;;;;5092841;28;20245;-74
2022/03/12 07:23:41;;;;;;;1.47;1.37;;;7.40;99.90;;;;;;5077411;28;20187;-76
2022/03/12 07:26:07;;;;;;;0.33;0.33;;;7.50;99.90;;;;;;5102192;28;20206;-76
2022/03/12 07:28:33;;;;;;;1.30;1.30;;;7.60;99.90;;;;;;5100027;28;20195;-77
2022/03/12 07:31:00;;;;;;;1.40;1.17;;;7.70;99.90;;;;;;5097220;28;20209;-77
2022/03/12 07:33:26;;;;;;;0.40;0.40;;;7.80;99.90;;;;;;5103142;28;20236;-74
2022/03/12 07:35:51;;;;;;;5.73;1.93;;;7.90;99.90;;;;;;5100221;28;20191;-71
2022/03/12 07:38:17;;;;;;;2.53;2.40;;;8.00;99.90;;;;;;5098195;28;20186;-71
2022/03/12 07:40:43;;;;;;;0.73;0.73;;;8.20;99.90;;;;;;5090693;28;20218;-72
2022/03/12 07:43:09;;;;;;;2.70;2.50;;;8.40;99.90;;;;;;5091151;28;20262;-73
2022/03/12 07:45:34;;;;;;;1.13;1.13;;;8.50;99.90;;;;;;5103503;28;20651;-74
2022/03/12 07:48:00;;;;;;;0.40;0.40;;;8.80;99.90;;;;;;5096128;28;20261;-74
2022/03/12 07:50:26;;;;;;;1.37;1.07;;;9.00;99.90;;;;;;5093455;28;20231;-73
2022/03/12 07:52:52;;;;;;;1.67;1.10;;;9.20;99.90;;;;;;5071432;28;20602;-72
2022/03/12 07:55:18;;;;;;;1.73;1.63;;;9.50;99.90;;;;;;5094016;28;20175;-72
2022/03/12 07:57:44;;;;;;;2.17;1.97;;;9.60;99.90;;;;;;5094510;28;20207;-73
2022/03/12 08:00:12;;;;;;;1.67;1.57;;;9.80;99.90;;;;;;5092697;28;20219;-72
2022/03/12 08:02:38;;;;;;;2.63;2.43;;;10.00;99.90;;;;;;5097890;28;20178;-72
2022/03/12 08:05:04;;;;;;;2.17;1.97;;;10.20;99.90;;;;;;5101433;28;20183;-71
2022/03/12 08:09:59;;;;;;;1.97;1.87;;;10.50;99.90;;;;;;5042422;28;20221;-73
2022/03/12 08:12:26;;;;;;;3.13;2.70;;;10.80;99.90;;;;;;5046572;28;20165;-74
2022/03/12 08:14:52;;;;;;;0.90;0.90;;;11.10;99.90;;;;;;5044922;28;20184;-74
2022/03/12 08:17:19;;;;;;;0.93;0.93;;;11.30;99.90;;;;;;5046904;28;20213;-73
2022/03/12 08:19:45;;;;;;;1.73;1.63;;;11.40;99.90;;;;;;5042927;28;20201;-73
2022/03/12 08:22:11;;;;;;;5.50;2.10;;;11.50;99.90;;;;;;5064239;28;20605;-72
2022/03/12 08:24:36;;;;;;;2.40;2.17;;;11.60;99.90;;;;;;5065454;28;20183;-74
2022/03/12 08:27:03;;;;;;;7.67;2.53;;;11.90;99.90;;;;;;5064295;28;20219;-73
2022/03/12 08:29:29;;;;;;;2.73;2.27;;;12.00;99.90;;;;;;5065337;28;20559;-73
2022/03/12 08:31:55;;;;;;;1.23;0.77;;;12.20;99.90;;;;;;5066202;28;20181;-72
2022/03/12 08:34:20;;;;;;;1.27;0.97;;;12.20;99.90;;;;;;5063842;28;20181;-73
2022/03/12 08:36:46;;;;;;;0.60;0.47;;;12.10;99.90;;;;;;5065629;28;20211;-72
2022/03/12 08:39:13;;;;;;;0.43;0.43;;;12.20;99.90;;;;;;5066187;28;20236;-71
2022/03/12 08:41:39;;;;;;;1.23;0.60;;;12.20;99.90;;;;;;5044982;28;20194;-71
2022/03/12 08:44:06;;;;;;;1.13;1.07;;;12.30;99.90;;;;;;5063612;28;20176;-73
2022/03/12 08:46:32;;;;;;;0.87;0.83;;;12.40;99.90;;;;;;5062929;28;21462;-73
2022/03/12 08:48:58;;;;;;;2.33;2.07;;;12.40;99.90;;;;;;5069126;28;20176;-73
2022/03/12 08:51:24;;;;;;;0.97;0.97;;;12.60;99.90;;;;;;5068846;28;20216;-72
2022/03/12 08:53:49;;;;;;;1.63;1.53;;;12.80;99.90;;;;;;5064418;28;20184;-72
2022/03/12 08:56:15;;;;;;;1.37;1.23;;;12.90;99.90;;;;;;5062550;28;20184;-72
2022/03/12 08:58:41;;;;;;;5.10;0.70;;;13.00;99.90;;;;;;5063985;28;20183;-72
2022/03/12 09:01:08;;;;;;;2.17;2.07;;;13.10;99.90;;;;;;5064660;28;20201;-72
2022/03/12 09:03:36;;;;;;;2.47;1.33;;;13.20;99.90;;;;;;5065201;28;20256;-72
2022/03/12 09:06:02;;;;;;;1.40;1.13;;;13.30;99.90;;;;;;5043679;28;20189;-73
2022/03/12 09:08:28;;;;;;;1.23;1.23;;;13.50;99.90;;;;;;5064345;28;20745;-73
2022/03/12 09:10:55;;;;;;;1.03;0.63;;;13.40;99.90;;;;;;5062656;28;20208;-71
2022/03/12 09:13:21;;;;;;;0.70;0.70;;;13.30;99.90;;;;;;5064651;28;20191;-71
2022/03/12 09:15:46;;;;;;;5.43;2.60;;;13.30;99.90;;;;;;5064473;28;20180;-74
2022/03/12 09:18:13;;;;;;;1.57;1.47;;;13.50;99.90;;;;;;5053455;28;20220;-73
2022/03/12 09:20:43;;;;;;;0.37;0.37;;;13.30;99.90;;;;;;5064188;28;20208;-72
2022/03/12 09:23:09;;;;;;;2.50;0.80;;;13.30;99.90;;;;;;5062104;28;21632;-71
2022/03/12 09:25:35;;;;;;;0.70;0.70;;;13.50;99.90;;;;;;5065914;28;20181;-74
2022/03/12 09:28:00;;;;;;;1.87;0.60;;;13.60;99.90;;;;;;5067594;28;20283;-73
2022/03/12 09:30:26;;;;;;;3.30;1.77;;;13.60;99.90;;;;;;5063964;28;20180;-73
2022/03/12 09:32:53;;;;;;;1.13;1.03;;;13.60;99.90;;;;;;5065149;28;20563;-72
2022/03/12 09:35:19;;;;;;;2.40;1.83;;;13.70;99.90;;;;;;5061611;28;20270;-72
2022/03/12 09:37:46;;;;;;;0.20;0.20;;;13.70;99.90;;;;;;5063880;28;20607;-73
2022/03/12 09:40:11;;;;;;;0.47;0.47;;;13.50;99.90;;;;;;5064278;28;20212;-71
2022/03/12 09:42:37;;;;;;;1.13;0.83;;;13.60;99.90;;;;;;5062447;28;20183;-72
2022/03/12 09:45:04;;;;;;;4.33;2.17;;;13.70;99.90;;;;;;5047948;28;20184;-73
2022/03/12 09:47:30;;;;;;;2.50;1.23;;;13.70;99.90;;;;;;5064514;28;20419;-73
2022/03/12 09:49:56;;;;;;;0.63;0.63;;;13.80;99.90;;;;;;5061020;28;20212;-73
2022/03/12 09:52:21;;;;;;;0.53;0.53;;;13.80;99.90;;;;;;5063003;28;20263;-73
2022/03/12 09:54:49;;;;;;;0.67;0.67;;;13.80;99.90;;;;;;5059007;28;20188;-72
2022/03/12 09:57:15;;;;;;;1.40;1.10;;;13.80;99.90;;;;;;5063963;28;20266;-72
2022/03/12 09:59:40;;;;;;;0.37;0.37;;;14.10;99.90;;;;;;5059554;28;20204;-73
2022/03/12 10:02:06;;;;;;;0.23;0.23;;;14.20;99.90;;;;;;5059305;28;20623;-73
2022/03/12 10:04:32;;;;;;;1.43;1.43;;;14.20;99.90;;;;;;5046849;28;20217;-72
2022/03/12 10:06:58;;;;;;;1.27;1.17;;;14.30;99.90;;;;;;5057444;28;20224;-72
2022/03/12 10:09:24;;;;;;;0.57;0.57;;;14.60;99.90;;;;;;5033427;28;20211;-73
2022/03/12 10:11:50;;;;;;;0.40;0.40;;;14.60;99.90;;;;;;5058210;28;20176;-72
2022/03/12 10:14:16;;;;;;;1.23;0.83;;;14.70;99.90;;;;;;5056139;28;20184;-73
2022/03/12 10:16:42;;;;;;;1.20;1.10;;;14.80;99.90;;;;;;5035577;28;20215;-74
2022/03/12 10:19:08;;;;;;;0.83;0.67;;;14.70;99.90;;;;;;5061214;28;20180;-73
2022/03/12 10:21:35;;;;;;;0.30;0.30;;;14.70;99.90;;;;;;5063352;28;20833;-73
2022/03/12 10:24:02;;;;;;;0.57;0.57;;;14.70;99.90;;;;;;5037797;28;20180;-72
2022/03/12 10:26:28;;;;;;;3.97;1.13;;;14.70;99.90;;;;;;5060785;28;20671;-72
2022/03/12 10:28:53;;;;;;;0.63;0.63;;;15.00;99.90;;;;;;5064793;28;20212;-73
2022/03/12 10:31:19;;;;;;;0.53;0.53;;;15.10;99.90;;;;;;5060567;28;21036;-71
2022/03/12 10:33:45;;;;;;;1.50;0.40;;;14.80;99.90;;;;;;5065294;28;20263;-72
2022/03/12 10:36:15;;;;;;;0.40;0.37;;;14.80;99.90;;;;;;5066057;28;20188;-73
2022/03/12 10:38:47;;;;;;;0.97;0.97;;;15.00;99.90;;;;;;5065329;28;20248;-73
2022/03/12 10:41:13;;;;;;;0.83;0.83;;;15.50;99.90;;;;;;5067467;28;20738;-73
2022/03/12 10:43:47;;;;;;;2.10;1.30;;;15.60;99.90;;;;;;5063756;28;20559;-73
2022/03/12 10:46:23;;;;;;;0.50;0.50;;;15.10;99.90;;;;;;5050202;28;20253;-73
2022/03/12 10:48:54;;;;;;;0.17;0.17;;;15.30;99.90;;;;;;5071822;28;20231;-72
2022/03/12 10:51:19;;;;;;;0.67;0.67;;;15.40;99.90;;;;;;5051850;28;20192;-72
2022/03/12 10:53:45;;;;;;;0.67;0.67;;;15.60;99.90;;;;;;5070912;28;20521;-74
2022/03/12 10:56:11;;;;;;;0.47;0.47;;;15.40;99.90;;;;;;5051074;28;20193;-71
2022/03/12 10:58:37;;;;;;;0.50;0.50;;;15.30;99.90;;;;;;5053661;28;20590;-73
2022/03/12 11:01:03;;;;;;;2.80;1.90;;;15.30;99.90;;;;;;5052651;28;20219;-74
2022/03/12 11:03:34;;;;;;;0.57;0.57;;;15.10;99.90;;;;;;5070924;28;20822;-74
2022/03/12 11:06:00;;;;;;;2.77;0.83;;;15.20;99.90;;;;;;5070912;28;20181;-73
2022/03/12 11:08:27;;;;;;;1.07;0.93;;;15.30;99.90;;;;;;5053393;28;20220;-74
2022/03/12 11:10:58;;;;;;;1.40;1.37;;;15.20;99.90;;;;;;5070292;28;20189;-73
2022/03/12 11:13:47;;;;;;;5.53;1.20;;;15.00;99.90;;;;;;5070704;28;20188;-74
2022/03/12 11:16:12;;;;;;;4.13;0.67;;;15.30;99.90;;;;;;5045728;28;20196;-74
2022/03/12 11:18:58;;;;;;;0.93;0.93;;;15.20;99.90;;;;;;5064892;28;20184;-74
2022/03/12 11:21:37;;;;;;;4.13;1.17;;;15.10;99.90;;;;;;5069924;28;20209;-74
2022/03/12 11:24:09;;;;;;;0.63;0.53;;;15.00;99.90;;;;;;5055360;28;20259;-74
2022/03/12 11:26:47;;;;;;;1.20;0.70;;;14.90;99.90;;;;;;5070775;28;20222;-73
2022/03/12 11:29:13;;;;;;;0.97;0.97;;;15.00;99.90;;;;;;5070792;28;20196;-73
2022/03/12 11:32:00;;;;;;;0.27;0.27;;;15.30;99.90;;;;;;5070631;28;20232;-74
2022/03/12 11:34:30;;;;;;;1.77;1.30;;;15.40;99.90;;;;;;5070320;28;20194;-74
2022/03/12 11:36:59;;;;;;;2.00;1.47;;;15.70;99.90;;;;;;5066819;28;20189;-73
2022/03/12 11:39:41;;;;;;;0.60;0.60;;;15.70;99.90;;;;;;5064971;28;20249;-74
2022/03/12 11:42:15;;;;;;;2.50;1.10;;;16.00;99.90;;;;;;5066164;28;20974;-74
2022/03/12 11:44:46;;;;;;;1.43;1.10;;;16.10;99.90;;;;;;5065402;28;20190;-74
2022/03/12 11:47:18;;;;;;;1.13;1.13;;;16.20;99.90;;;;;;5066636;28;20211;-73
2022/03/12 11:49:45;;;;;;;0.97;0.93;;;15.90;99.90;;;;;;5069482;28;20340;-74
2022/03/12 11:52:12;;;;;;;0.67;0.67;;;15.10;99.90;;;;;;5052689;28;20235;-74
2022/03/12 11:54:43;;;;;;;2.77;1.43;;;15.00;99.90;;;;;;5070503;28;20191;-73
2022/03/12 11:57:10;;;;;;;2.07;1.37;;;15.30;99.90;;;;;;5040776;28;20679;-73
2022/03/12 11:59:38;;;;;;;1.70;1.50;;;15.20;99.90;;;;;;5068395;28;20204;-74
2022/03/12 12:02:20;;;;;;;0.83;0.83;;;15.30;99.90;;;;;;5070029;28;20259;-74
2022/03/12 12:04:46;;;;;;;0.73;0.70;;;15.60;99.90;;;;;;5069591;28;20845;-73
2022/03/12 12:07:11;;;;;;;0.63;0.63;;;16.20;99.90;;;;;;5070506;28;20201;-73
2022/03/12 12:09:37;;;;;;;1.60;0.97;;;16.80;99.90;;;;;;5070304;28;20202;-73
2022/03/12 12:12:13;;;;;;;8.47;1.27;;;17.10;99.90;;;;;;5052306;28;20190;-73
2022/03/12 12:14:40;;;;;;;0.60;0.60;;;17.50;99.90;;;;;;5069969;28;20186;-75
2022/03/12 12:17:06;;;;;;;2.83;0.65;;;17.80;99.90;;;;;;5069502;28;20396;-73
2022/03/12 12:19:31;;;;;;;0.20;0.20;;;17.10;99.90;;;;;;5051960;28;20274;-74
2022/03/12 12:21:57;;;;;;;1.10;1.00;;;16.50;99.90;;;;;;5069861;28;20396;-74
2022/03/12 12:24:35;;;;;;;0.30;0.30;;;16.50;99.90;;;;;;5074234;28;20183;-73
2022/03/12 12:27:27;;;;;;;0.93;0.80;;;18.00;99.90;;;;;;5074127;28;20282;-73
2022/03/12 12:29:54;;;;;;;4.73;3.10;;;17.90;99.90;;;;;;5072861;28;20180;-74
2022/03/12 12:32:25;;;;;;;0.97;0.97;;;16.90;99.90;;;;;;5073788;28;20176;-73
2022/03/12 12:35:04;;;;;;;0.67;0.67;;;16.20;99.90;;;;;;5073763;28;20525;-73
2022/03/12 12:37:43;;;;;;;0.20;0.20;;;16.40;99.90;;;;;;5073729;28;20207;-72
2022/03/12 12:40:27;;;;;;;1.40;0.60;;;17.00;99.90;;;;;;5055704;28;20207;-73
2022/03/12 12:42:56;;;;;;;0.47;0.47;;;16.80;99.90;;;;;;5056094;28;20187;-73
2022/03/12 12:45:24;;;;;;;0.60;0.60;;;16.00;99.90;;;;;;5074134;28;20216;-73
2022/03/12 12:48:14;;;;;;;0.40;0.40;;;15.90;99.90;;;;;;5073674;28;20256;-74
2022/03/12 12:50:40;;;;;;;0.70;0.60;;;16.80;99.90;;;;;;5073705;28;20186;-74
2022/03/12 12:53:08;;;;;;;0.27;0.27;;;17.20;99.90;;;;;;5073976;28;20179;-73
2022/03/12 12:55:34;;;;;;;0.40;0.40;;;17.20;99.90;;;;;;5073613;28;20262;-74
2022/03/12 12:58:00;;;;;;;0.50;0.50;;;17.20;99.90;;;;;;5073862;28;20211;-73